Terminal Aerodrome Forecast
Issued by NWS Louisville, KY

Home | Current Version | Previous Version | Text Only | Print | Product List | Glossary On
Versions: 1 2 3 4 5 6 7 8 9 10 11 12
000
FTUS43 KLMK 281728
TAFSDF
TAF
KSDF 281728Z 2818/2924 18008G16KT P6SM FEW060 FEW250
     FM290000 17004KT P6SM SKC
     FM290700 18005KT P6SM SKC WS020/22038KT
     FM291200 20012G20KT P6SM FEW060 SCT200=

USA.gov is the U.S. government's official web portal to all federal, state and local government web resources and services.